sensor_id;sensor_type;location;lat;lon;timestamp;temperature;humidity
3194;DHT22;1608;50.860;13.466;2022-07-05T00:00:55;18.90;99.90
3194;DHT22;1608;50.860;13.466;2022-07-05T00:03:21;18.80;99.90
3194;DHT22;1608;50.860;13.466;2022-07-05T00:05:48;18.80;99.90
3194;DHT22;1608;50.860;13.466;2022-07-05T00:08:15;18.80;99.90
3194;DHT22;1608;50.860;13.466;2022-07-05T00:10:44;18.80;99.90
3194;DHT22;1608;50.860;13.466;2022-07-05T00:13:11;18.80;99.90
3194;DHT22;1608;50.860;13.466;2022-07-05T00:15:38;18.80;99.90
3194;DHT22;1608;50.860;13.466;2022-07-05T00:18:05;18.80;99.90
3194;DHT22;1608;50.860;13.466;2022-07-05T00:20:32;18.80;99.90
3194;DHT22;1608;50.860;13.466;2022-07-05T00:22:58;18.80;99.90
3194;DHT22;1608;50.860;13.466;2022-07-05T00:25:25;18.70;99.90
3194;DHT22;1608;50.860;13.466;2022-07-05T00:27:53;18.70;99.90
3194;DHT22;1608;50.860;13.466;2022-07-05T00:30:20;18.60;99.90
3194;DHT22;1608;50.860;13.466;2022-07-05T00:32:47;18.60;99.90
3194;DHT22;1608;50.860;13.466;2022-07-05T00:35:14;18.60;99.90
3194;DHT22;1608;50.860;13.466;2022-07-05T00:37:40;18.60;99.90
3194;DHT22;1608;50.860;13.466;2022-07-05T00:40:07;18.60;99.90
3194;DHT22;1608;50.860;13.466;2022-07-05T00:42:34;18.70;99.90
3194;DHT22;1608;50.860;13.466;2022-07-05T00:45:04;18.70;99.90
3194;DHT22;1608;50.860;13.466;2022-07-05T00:47:31;18.60;99.90
3194;DHT22;1608;50.860;13.466;2022-07-05T00:49:58;18.50;99.90
3194;DHT22;1608;50.860;13.466;2022-07-05T00:52:25;18.50;99.90
3194;DHT22;1608;50.860;13.466;2022-07-05T00:54:51;18.40;99.90
3194;DHT22;1608;50.860;13.466;2022-07-05T00:57:20;18.50;99.90
3194;DHT22;1608;50.860;13.466;2022-07-05T00:59:47;18.50;99.90
3194;DHT22;1608;50.860;13.466;2022-07-05T01:02:15;18.40;99.90
3194;DHT22;1608;50.860;13.466;2022-07-05T01:04:42;18.50;99.90
3194;DHT22;1608;50.860;13.466;2022-07-05T01:07:09;18.40;99.90
3194;DHT22;1608;50.860;13.466;2022-07-05T01:09:35;18.40;99.90
3194;DHT22;1608;50.860;13.466;2022-07-05T01:12:03;18.40;99.90
3194;DHT22;1608;50.860;13.466;2022-07-05T01:14:29;18.30;99.90
3194;DHT22;1608;50.860;13.466;2022-07-05T01:16:57;18.20;99.90
3194;DHT22;1608;50.860;13.466;2022-07-05T01:19:25;18.30;99.90
3194;DHT22;1608;50.860;13.466;2022-07-05T01:21:52;18.20;99.90
3194;DHT22;1608;50.860;13.466;2022-07-05T01:24:21;18.20;99.90
3194;DHT22;1608;50.860;13.466;2022-07-05T01:26:49;18.20;99.90
3194;DHT22;1608;50.860;13.466;2022-07-05T01:29:17;18.20;99.90
3194;DHT22;1608;50.860;13.466;2022-07-05T01:31:44;18.10;99.90
3194;DHT22;1608;50.860;13.466;2022-07-05T01:34:11;18.00;99.90
3194;DHT22;1608;50.860;13.466;2022-07-05T01:36:38;17.90;99.90
3194;DHT22;1608;50.860;13.466;2022-07-05T01:39:07;17.80;99.90
3194;DHT22;1608;50.860;13.466;2022-07-05T01:41:36;17.80;99.90
3194;DHT22;1608;50.860;13.466;2022-07-05T01:44:03;17.80;99.90
3194;DHT22;1608;50.860;13.466;2022-07-05T01:46:32;17.80;99.90
3194;DHT22;1608;50.860;13.466;2022-07-05T01:49:04;17.80;99.90
3194;DHT22;1608;50.860;13.466;2022-07-05T01:51:34;17.70;99.90
3194;DHT22;1608;50.860;13.466;2022-07-05T01:54:01;17.70;99.90
3194;DHT22;1608;50.860;13.466;2022-07-05T01:56:28;17.60;99.90
3194;DHT22;1608;50.860;13.466;2022-07-05T01:58:57;17.60;99.90
3194;DHT22;1608;50.860;13.466;2022-07-05T02:01:33;17.60;99.90
3194;DHT22;1608;50.860;13.466;2022-07-05T02:04:00;17.60;99.90
3194;DHT22;1608;50.860;13.466;2022-07-05T02:06:27;17.50;99.90
3194;DHT22;1608;50.860;13.466;2022-07-05T02:08:54;17.50;99.90
3194;DHT22;1608;50.860;13.466;2022-07-05T02:11:21;17.40;99.90
3194;DHT22;1608;50.860;13.466;2022-07-05T02:13:48;17.40;99.90
3194;DHT22;1608;50.860;13.466;2022-07-05T02:16:16;17.40;99.90
3194;DHT22;1608;50.860;13.466;2022-07-05T02:18:43;17.40;99.90
3194;DHT22;1608;50.860;13.466;2022-07-05T02:21:09;17.40;99.90
3194;DHT22;1608;50.860;13.466;2022-07-05T02:23:36;17.40;99.90
3194;DHT22;1608;50.860;13.466;2022-07-05T02:26:03;17.30;99.90
3194;DHT22;1608;50.860;13.466;2022-07-05T02:28:30;17.30;99.90
3194;DHT22;1608;50.860;13.466;2022-07-05T02:30:56;17.20;99.90
3194;DHT22;1608;50.860;13.466;2022-07-05T02:33:25;17.10;99.90
3194;DHT22;1608;50.860;13.466;2022-07-05T02:35:51;17.00;99.90
3194;DHT22;1608;50.860;13.466;2022-07-05T02:38:18;16.90;99.90
3194;DHT22;1608;50.860;13.466;2022-07-05T02:40:45;16.90;99.90
3194;DHT22;1608;50.860;13.466;2022-07-05T02:43:12;16.90;99.90
3194;DHT22;1608;50.860;13.466;2022-07-05T02:45:39;16.80;99.90
3194;DHT22;1608;50.860;13.466;2022-07-05T02:48:05;16.80;99.90
3194;DHT22;1608;50.860;13.466;2022-07-05T02:50:33;16.80;99.90
3194;DHT22;1608;50.860;13.466;2022-07-05T02:53:00;16.90;99.90
3194;DHT22;1608;50.860;13.466;2022-07-05T02:55:27;16.80;99.90
3194;DHT22;1608;50.860;13.466;2022-07-05T02:57:54;16.80;99.90
3194;DHT22;1608;50.860;13.466;2022-07-05T03:00:20;16.80;99.90
3194;DHT22;1608;50.860;13.466;2022-07-05T03:02:47;16.90;99.90
3194;DHT22;1608;50.860;13.466;2022-07-05T03:05:14;16.90;99.90
3194;DHT22;1608;50.860;13.466;2022-07-05T03:07:42;16.80;99.90
3194;DHT22;1608;50.860;13.466;2022-07-05T03:10:09;16.80;99.90
3194;DHT22;1608;50.860;13.466;2022-07-05T03:12:36;16.80;99.90
3194;DHT22;1608;50.860;13.466;2022-07-05T03:15:03;16.80;99.90
3194;DHT22;1608;50.860;13.466;2022-07-05T03:17:30;16.80;99.90
3194;DHT22;1608;50.860;13.466;2022-07-05T03:19:57;16.80;99.90
3194;DHT22;1608;50.860;13.466;2022-07-05T03:22:23;16.70;99.90
3194;DHT22;1608;50.860;13.466;2022-07-05T03:24:51;16.70;99.90
3194;DHT22;1608;50.860;13.466;2022-07-05T03:29:53;16.70;99.90
3194;DHT22;1608;50.860;13.466;2022-07-05T03:32:20;16.70;99.90
3194;DHT22;1608;50.860;13.466;2022-07-05T03:34:46;16.70;99.90
3194;DHT22;1608;50.860;13.466;2022-07-05T03:37:13;16.70;99.90
3194;DHT22;1608;50.860;13.466;2022-07-05T03:39:40;16.70;99.90
3194;DHT22;1608;50.860;13.466;2022-07-05T03:42:08;16.80;99.90
3194;DHT22;1608;50.860;13.466;2022-07-05T03:44:35;16.90;99.90
3194;DHT22;1608;50.860;13.466;2022-07-05T03:47:02;16.90;99.90
3194;DHT22;1608;50.860;13.466;2022-07-05T03:49:29;17.00;99.90
3194;DHT22;1608;50.860;13.466;2022-07-05T03:51:56;16.90;99.90
3194;DHT22;1608;50.860;13.466;2022-07-05T03:54:22;16.90;99.90
3194;DHT22;1608;50.860;13.466;2022-07-05T03:56:49;15.40;99.90
3194;DHT22;1608;50.860;13.466;2022-07-05T03:59:17;17.00;99.90
3194;DHT22;1608;50.860;13.466;2022-07-05T04:01:44;17.10;99.90
3194;DHT22;1608;50.860;13.466;2022-07-05T04:04:11;17.20;99.90
3194;DHT22;1608;50.860;13.466;2022-07-05T04:06:37;17.30;99.90
3194;DHT22;1608;50.860;13.466;2022-07-05T04:09:04;17.40;99.90
3194;DHT22;1608;50.860;13.466;2022-07-05T04:11:31;17.50;99.90
3194;DHT22;1608;50.860;13.466;2022-07-05T04:13:58;17.60;99.90
3194;DHT22;1608;50.860;13.466;2022-07-05T04:16:26;17.70;99.90
3194;DHT22;1608;50.860;13.466;2022-07-05T04:18:53;17.80;99.90
3194;DHT22;1608;50.860;13.466;2022-07-05T04:21:19;17.90;99.90
3194;DHT22;1608;50.860;13.466;2022-07-05T04:23:46;18.00;99.90
3194;DHT22;1608;50.860;13.466;2022-07-05T04:26:13;18.00;99.90
3194;DHT22;1608;50.860;13.466;2022-07-05T04:28:40;18.20;99.90
3194;DHT22;1608;50.860;13.466;2022-07-05T04:31:07;18.60;99.90
3194;DHT22;1608;50.860;13.466;2022-07-05T04:33:35;19.20;99.90
3194;DHT22;1608;50.860;13.466;2022-07-05T04:36:02;19.70;99.90
3194;DHT22;1608;50.860;13.466;2022-07-05T04:38:29;20.20;99.90
3194;DHT22;1608;50.860;13.466;2022-07-05T04:40:56;20.60;99.90
3194;DHT22;1608;50.860;13.466;2022-07-05T04:43:22;20.70;99.90
3194;DHT22;1608;50.860;13.466;2022-07-05T04:45:49;20.80;99.90
3194;DHT22;1608;50.860;13.466;2022-07-05T04:48:16;20.90;99.60
3194;DHT22;1608;50.860;13.466;2022-07-05T04:50:44;20.90;99.20
3194;DHT22;1608;50.860;13.466;2022-07-05T04:53:11;20.80;98.70
3194;DHT22;1608;50.860;13.466;2022-07-05T04:55:37;20.80;99.10
3194;DHT22;1608;50.860;13.466;2022-07-05T04:58:04;20.90;98.70
3194;DHT22;1608;50.860;13.466;2022-07-05T05:00:31;20.90;98.20
3194;DHT22;1608;50.860;13.466;2022-07-05T05:02:58;20.90;98.20
3194;DHT22;1608;50.860;13.466;2022-07-05T05:05:25;20.90;98.10
3194;DHT22;1608;50.860;13.466;2022-07-05T05:07:53;21.00;98.20
3194;DHT22;1608;50.860;13.466;2022-07-05T05:10:20;21.30;97.80
3194;DHT22;1608;50.860;13.466;2022-07-05T05:12:46;21.60;96.80
3194;DHT22;1608;50.860;13.466;2022-07-05T05:15:13;21.90;96.00
3194;DHT22;1608;50.860;13.466;2022-07-05T05:17:43;23.20;93.50
3194;DHT22;1608;50.860;13.466;2022-07-05T05:20:11;23.50;93.20
3194;DHT22;1608;50.860;13.466;2022-07-05T05:22:39;24.90;91.10
3194;DHT22;1608;50.860;13.466;2022-07-05T05:25:08;26.40;85.90
3194;DHT22;1608;50.860;13.466;2022-07-05T05:27:35;28.90;74.00
3194;DHT22;1608;50.860;13.466;2022-07-05T05:30:07;28.90;74.40
3194;DHT22;1608;50.860;13.466;2022-07-05T05:32:34;29.90;68.90
3194;DHT22;1608;50.860;13.466;2022-07-05T05:35:01;30.70;64.90
3194;DHT22;1608;50.860;13.466;2022-07-05T05:37:27;31.40;61.60
3194;DHT22;1608;50.860;13.466;2022-07-05T05:39:54;32.00;59.10
3194;DHT22;1608;50.860;13.466;2022-07-05T05:42:22;32.30;57.70
3194;DHT22;1608;50.860;13.466;2022-07-05T05:44:49;32.20;55.60
3194;DHT22;1608;50.860;13.466;2022-07-05T05:47:16;31.60;56.30
3194;DHT22;1608;50.860;13.466;2022-07-05T05:49:42;31.20;57.00
3194;DHT22;1608;50.860;13.466;2022-07-05T05:52:09;30.90;57.50
3194;DHT22;1608;50.860;13.466;2022-07-05T05:54:36;30.70;57.30
3194;DHT22;1608;50.860;13.466;2022-07-05T05:57:03;31.00;57.60
3194;DHT22;1608;50.860;13.466;2022-07-05T05:59:31;31.60;57.20
3194;DHT22;1608;50.860;13.466;2022-07-05T06:01:58;31.90;56.00
3194;DHT22;1608;50.860;13.466;2022-07-05T06:04:25;32.00;55.40
3194;DHT22;1608;50.860;13.466;2022-07-05T06:06:52;32.40;54.20
3194;DHT22;1608;50.860;13.466;2022-07-05T06:09:18;32.20;54.00
3194;DHT22;1608;50.860;13.466;2022-07-05T06:11:45;32.50;54.70
3194;DHT22;1608;50.860;13.466;2022-07-05T06:14:12;32.60;54.00
3194;DHT22;1608;50.860;13.466;2022-07-05T06:16:40;32.40;54.00
3194;DHT22;1608;50.860;13.466;2022-07-05T06:19:07;32.20;53.50
3194;DHT22;1608;50.860;13.466;2022-07-05T06:21:33;31.70;54.10
3194;DHT22;1608;50.860;13.466;2022-07-05T06:24:00;31.60;54.30
3194;DHT22;1608;50.860;13.466;2022-07-05T06:26:27;31.30;53.70
3194;DHT22;1608;50.860;13.466;2022-07-05T06:28:54;30.90;53.90
3194;DHT22;1608;50.860;13.466;2022-07-05T06:31:20;30.90;55.10
3194;DHT22;1608;50.860;13.466;2022-07-05T06:33:49;30.60;54.50
3194;DHT22;1608;50.860;13.466;2022-07-05T06:36:15;30.40;54.60
3194;DHT22;1608;50.860;13.466;2022-07-05T06:38:42;30.70;54.50
3194;DHT22;1608;50.860;13.466;2022-07-05T06:41:09;31.10;54.20
3194;DHT22;1608;50.860;13.466;2022-07-05T06:43:35;31.90;52.20
3194;DHT22;1608;50.860;13.466;2022-07-05T06:46:02;32.90;49.80
3194;DHT22;1608;50.860;13.466;2022-07-05T06:48:29;33.90;48.50
3194;DHT22;1608;50.860;13.466;2022-07-05T06:50:57;34.70;48.10
3194;DHT22;1608;50.860;13.466;2022-07-05T06:53:24;35.40;47.10
3194;DHT22;1608;50.860;13.466;2022-07-05T06:55:51;36.30;45.50
3194;DHT22;1608;50.860;13.466;2022-07-05T06:58:18;37.10;43.70
3194;DHT22;1608;50.860;13.466;2022-07-05T07:00:44;37.60;42.80
3194;DHT22;1608;50.860;13.466;2022-07-05T07:03:11;38.10;41.20
3194;DHT22;1608;50.860;13.466;2022-07-05T07:05:38;37.60;39.60
3194;DHT22;1608;50.860;13.466;2022-07-05T07:08:06;36.80;40.30
3194;DHT22;1608;50.860;13.466;2022-07-05T07:11:02;36.50;42.40
3194;DHT22;1608;50.860;13.466;2022-07-05T07:13:29;35.60;41.50
3194;DHT22;1608;50.860;13.466;2022-07-05T07:15:56;35.00;41.70
3194;DHT22;1608;50.860;13.466;2022-07-05T07:18:23;34.70;44.10
3194;DHT22;1608;50.860;13.466;2022-07-05T07:20:49;34.80;43.60
3194;DHT22;1608;50.860;13.466;2022-07-05T07:23:17;33.90;43.80
3194;DHT22;1608;50.860;13.466;2022-07-05T07:25:44;33.40;44.90
3194;DHT22;1608;50.860;13.466;2022-07-05T07:28:13;33.50;45.80
3194;DHT22;1608;50.860;13.466;2022-07-05T07:30:39;33.30;44.30
3194;DHT22;1608;50.860;13.466;2022-07-05T07:33:06;32.60;44.00
3194;DHT22;1608;50.860;13.466;2022-07-05T07:35:33;32.20;45.20
3194;DHT22;1608;50.860;13.466;2022-07-05T07:38:00;32.00;44.00
3194;DHT22;1608;50.860;13.466;2022-07-05T07:40:28;32.00;45.60
3194;DHT22;1608;50.860;13.466;2022-07-05T07:42:54;32.20;45.30
3194;DHT22;1608;50.860;13.466;2022-07-05T07:45:21;31.90;46.40
3194;DHT22;1608;50.860;13.466;2022-07-05T07:47:48;32.00;46.00
3194;DHT22;1608;50.860;13.466;2022-07-05T07:50:15;32.00;44.60
3194;DHT22;1608;50.860;13.466;2022-07-05T07:52:41;32.60;44.70
3194;DHT22;1608;50.860;13.466;2022-07-05T07:55:08;33.00;44.30
3194;DHT22;1608;50.860;13.466;2022-07-05T07:57:37;35.10;44.00
3194;DHT22;1608;50.860;13.466;2022-07-05T08:00:04;35.20;42.30
3194;DHT22;1608;50.860;13.466;2022-07-05T08:02:31;36.10;40.50
3194;DHT22;1608;50.860;13.466;2022-07-05T08:04:58;36.50;40.10
3194;DHT22;1608;50.860;13.466;2022-07-05T08:07:25;37.00;38.30
3194;DHT22;1608;50.860;13.466;2022-07-05T08:09:52;37.00;37.00
3194;DHT22;1608;50.860;13.466;2022-07-05T08:12:19;36.90;38.10
3194;DHT22;1608;50.860;13.466;2022-07-05T08:14:47;36.40;37.50
3194;DHT22;1608;50.860;13.466;2022-07-05T08:17:13;36.20;37.50
3194;DHT22;1608;50.860;13.466;2022-07-05T08:19:41;35.90;37.60
3194;DHT22;1608;50.860;13.466;2022-07-05T08:22:25;36.50;38.00
3194;DHT22;1608;50.860;13.466;2022-07-05T08:24:52;36.90;37.20
3194;DHT22;1608;50.860;13.466;2022-07-05T08:27:19;36.40;37.30
3194;DHT22;1608;50.860;13.466;2022-07-05T08:29:47;35.80;37.10
3194;DHT22;1608;50.860;13.466;2022-07-05T08:32:15;35.60;39.10
3194;DHT22;1608;50.860;13.466;2022-07-05T08:34:42;35.70;38.00
3194;DHT22;1608;50.860;13.466;2022-07-05T08:37:09;35.60;38.50
3194;DHT22;1608;50.860;13.466;2022-07-05T08:39:36;35.40;38.40
3194;DHT22;1608;50.860;13.466;2022-07-05T08:42:04;35.70;39.30
3194;DHT22;1608;50.860;13.466;2022-07-05T08:44:35;35.80;37.80
3194;DHT22;1608;50.860;13.466;2022-07-05T08:47:10;35.80;37.70
3194;DHT22;1608;50.860;13.466;2022-07-05T08:49:38;35.70;39.60
3194;DHT22;1608;50.860;13.466;2022-07-05T08:52:09;35.60;39.50
3194;DHT22;1608;50.860;13.466;2022-07-05T08:54:36;34.70;40.00
3194;DHT22;1608;50.860;13.466;2022-07-05T08:57:03;34.20;40.00
3194;DHT22;1608;50.860;13.466;2022-07-05T08:59:30;34.30;42.20
3194;DHT22;1608;50.860;13.466;2022-07-05T09:01:57;34.60;41.40
3194;DHT22;1608;50.860;13.466;2022-07-05T09:04:30;34.50;41.00
3194;DHT22;1608;50.860;13.466;2022-07-05T09:07:02;33.40;40.50
3194;DHT22;1608;50.860;13.466;2022-07-05T09:09:31;32.60;41.00
3194;DHT22;1608;50.860;13.466;2022-07-05T09:11:59;31.90;42.10
3194;DHT22;1608;50.860;13.466;2022-07-05T09:14:26;31.20;42.80
3194;DHT22;1608;50.860;13.466;2022-07-05T09:16:53;30.80;44.80
3194;DHT22;1608;50.860;13.466;2022-07-05T09:19:20;31.00;44.20
3194;DHT22;1608;50.860;13.466;2022-07-05T09:22:00;31.00;45.50
3194;DHT22;1608;50.860;13.466;2022-07-05T09:24:28;30.90;45.40
3194;DHT22;1608;50.860;13.466;2022-07-05T09:27:02;30.50;44.40
3194;DHT22;1608;50.860;13.466;2022-07-05T09:29:29;30.10;45.00
3194;DHT22;1608;50.860;13.466;2022-07-05T09:31:56;29.60;45.50
3194;DHT22;1608;50.860;13.466;2022-07-05T09:34:22;29.20;45.90
3194;DHT22;1608;50.860;13.466;2022-07-05T09:36:52;28.90;46.50
3194;DHT22;1608;50.860;13.466;2022-07-05T09:39:35;28.80;48.00
3194;DHT22;1608;50.860;13.466;2022-07-05T09:42:13;28.90;49.00
3194;DHT22;1608;50.860;13.466;2022-07-05T09:44:42;29.20;49.10
3194;DHT22;1608;50.860;13.466;2022-07-05T09:47:11;28.80;47.20
3194;DHT22;1608;50.860;13.466;2022-07-05T09:49:39;28.60;46.60
3194;DHT22;1608;50.860;13.466;2022-07-05T09:52:09;28.40;47.40
3194;DHT22;1608;50.860;13.466;2022-07-05T09:54:36;28.30;48.40
3194;DHT22;1608;50.860;13.466;2022-07-05T09:57:03;28.00;48.30
3194;DHT22;1608;50.860;13.466;2022-07-05T09:59:30;28.30;49.60
3194;DHT22;1608;50.860;13.466;2022-07-05T10:01:57;28.60;49.70
3194;DHT22;1608;50.860;13.466;2022-07-05T10:04:23;29.10;51.10
3194;DHT22;1608;50.860;13.466;2022-07-05T10:06:50;29.20;48.90
3194;DHT22;1608;50.860;13.466;2022-07-05T10:09:19;29.10;48.50
3194;DHT22;1608;50.860;13.466;2022-07-05T10:11:46;29.00;47.80
3194;DHT22;1608;50.860;13.466;2022-07-05T10:14:18;28.80;47.80
3194;DHT22;1608;50.860;13.466;2022-07-05T10:16:52;28.80;47.60
3194;DHT22;1608;50.860;13.466;2022-07-05T10:19:19;28.30;46.30
3194;DHT22;1608;50.860;13.466;2022-07-05T10:21:47;27.90;47.20
3194;DHT22;1608;50.860;13.466;2022-07-05T10:24:16;27.60;48.60
3194;DHT22;1608;50.860;13.466;2022-07-05T10:26:46;27.60;49.50
3194;DHT22;1608;50.860;13.466;2022-07-05T10:29:14;27.70;50.10
3194;DHT22;1608;50.860;13.466;2022-07-05T10:31:42;27.80;51.50
3194;DHT22;1608;50.860;13.466;2022-07-05T10:34:09;27.40;48.70
3194;DHT22;1608;50.860;13.466;2022-07-05T10:36:38;27.30;50.80
3194;DHT22;1608;50.860;13.466;2022-07-05T10:39:06;27.30;50.20
3194;DHT22;1608;50.860;13.466;2022-07-05T10:41:34;27.40;50.80
3194;DHT22;1608;50.860;13.466;2022-07-05T10:44:03;27.70;49.60
3194;DHT22;1608;50.860;13.466;2022-07-05T10:46:34;28.10;49.60
3194;DHT22;1608;50.860;13.466;2022-07-05T10:49:12;28.40;49.50
3194;DHT22;1608;50.860;13.466;2022-07-05T10:51:39;28.40;50.30
3194;DHT22;1608;50.860;13.466;2022-07-05T10:54:07;28.50;49.00
3194;DHT22;1608;50.860;13.466;2022-07-05T10:56:34;28.20;48.80
3194;DHT22;1608;50.860;13.466;2022-07-05T10:59:07;28.00;50.80
3194;DHT22;1608;50.860;13.466;2022-07-05T11:01:39;28.00;49.90
3194;DHT22;1608;50.860;13.466;2022-07-05T11:04:21;27.90;48.40
3194;DHT22;1608;50.860;13.466;2022-07-05T11:06:52;28.00;49.00
3194;DHT22;1608;50.860;13.466;2022-07-05T11:09:19;28.50;51.70
3194;DHT22;1608;50.860;13.466;2022-07-05T11:12:00;28.40;49.30
3194;DHT22;1608;50.860;13.466;2022-07-05T11:14:33;28.30;51.30
3194;DHT22;1608;50.860;13.466;2022-07-05T11:17:21;28.00;49.10
3194;DHT22;1608;50.860;13.466;2022-07-05T11:20:17;27.50;50.10
3194;DHT22;1608;50.860;13.466;2022-07-05T11:23:09;27.40;50.00
3194;DHT22;1608;50.860;13.466;2022-07-05T11:25:39;27.50;50.70
3194;DHT22;1608;50.860;13.466;2022-07-05T11:28:12;27.10;51.50
3194;DHT22;1608;50.860;13.466;2022-07-05T11:30:51;27.00;51.20
3194;DHT22;1608;50.860;13.466;2022-07-05T11:33:38;27.10;49.70
3194;DHT22;1608;50.860;13.466;2022-07-05T11:36:07;27.20;51.90
3194;DHT22;1608;50.860;13.466;2022-07-05T11:39:07;27.00;52.90
3194;DHT22;1608;50.860;13.466;2022-07-05T11:41:37;27.10;52.60
3194;DHT22;1608;50.860;13.466;2022-07-05T11:44:06;26.80;51.30
3194;DHT22;1608;50.860;13.466;2022-07-05T11:46:34;26.80;50.90
3194;DHT22;1608;50.860;13.466;2022-07-05T11:49:01;26.50;50.20
3194;DHT22;1608;50.860;13.466;2022-07-05T11:51:28;26.60;51.30
3194;DHT22;1608;50.860;13.466;2022-07-05T11:53:55;26.80;51.30
3194;DHT22;1608;50.860;13.466;2022-07-05T11:56:22;26.70;52.00
3194;DHT22;1608;50.860;13.466;2022-07-05T11:58:49;26.80;52.60
3194;DHT22;1608;50.860;13.466;2022-07-05T12:01:16;26.90;51.90
3194;DHT22;1608;50.860;13.466;2022-07-05T12:03:54;26.70;52.20
3194;DHT22;1608;50.860;13.466;2022-07-05T12:06:22;26.50;52.20
3194;DHT22;1608;50.860;13.466;2022-07-05T12:09:02;26.60;52.60
3194;DHT22;1608;50.860;13.466;2022-07-05T12:11:29;26.70;51.40
3194;DHT22;1608;50.860;13.466;2022-07-05T12:14:20;26.80;51.20
3194;DHT22;1608;50.860;13.466;2022-07-05T12:16:46;26.80;51.50
3194;DHT22;1608;50.860;13.466;2022-07-05T12:19:23;27.20;50.80
3194;DHT22;1608;50.860;13.466;2022-07-05T12:21:52;27.40;51.70
3194;DHT22;1608;50.860;13.466;2022-07-05T12:24:20;27.40;51.50
3194;DHT22;1608;50.860;13.466;2022-07-05T12:26:47;27.40;50.80
3194;DHT22;1608;50.860;13.466;2022-07-05T12:29:14;27.50;48.60
3194;DHT22;1608;50.860;13.466;2022-07-05T12:31:58;27.40;49.40
3194;DHT22;1608;50.860;13.466;2022-07-05T12:34:27;27.40;51.10
3194;DHT22;1608;50.860;13.466;2022-07-05T12:36:55;27.30;51.60
3194;DHT22;1608;50.860;13.466;2022-07-05T12:39:22;27.20;53.70
3194;DHT22;1608;50.860;13.466;2022-07-05T12:41:49;27.20;52.50
3194;DHT22;1608;50.860;13.466;2022-07-05T12:44:18;27.40;54.70
3194;DHT22;1608;50.860;13.466;2022-07-05T12:46:46;27.40;52.40
3194;DHT22;1608;50.860;13.466;2022-07-05T12:49:15;27.20;51.00
3194;DHT22;1608;50.860;13.466;2022-07-05T12:51:44;27.20;53.20
3194;DHT22;1608;50.860;13.466;2022-07-05T12:54:19;27.10;52.90
3194;DHT22;1608;50.860;13.466;2022-07-05T12:57:04;26.90;52.90
3194;DHT22;1608;50.860;13.466;2022-07-05T12:59:59;27.00;51.30
3194;DHT22;1608;50.860;13.466;2022-07-05T13:02:40;27.20;51.80
3194;DHT22;1608;50.860;13.466;2022-07-05T13:05:08;27.30;52.10
3194;DHT22;1608;50.860;13.466;2022-07-05T13:07:42;27.30;50.70
3194;DHT22;1608;50.860;13.466;2022-07-05T13:10:18;27.00;50.10
3194;DHT22;1608;50.860;13.466;2022-07-05T13:12:45;26.80;51.40
3194;DHT22;1608;50.860;13.466;2022-07-05T13:15:12;26.60;52.80
3194;DHT22;1608;50.860;13.466;2022-07-05T13:17:39;26.50;53.50
3194;DHT22;1608;50.860;13.466;2022-07-05T13:20:07;26.60;50.90
3194;DHT22;1608;50.860;13.466;2022-07-05T13:22:34;26.70;52.60
3194;DHT22;1608;50.860;13.466;2022-07-05T13:25:03;26.70;53.70
3194;DHT22;1608;50.860;13.466;2022-07-05T13:27:30;26.70;52.30
3194;DHT22;1608;50.860;13.466;2022-07-05T13:29:57;26.70;52.80
3194;DHT22;1608;50.860;13.466;2022-07-05T13:32:24;26.90;52.90
3194;DHT22;1608;50.860;13.466;2022-07-05T13:34:50;27.10;52.40
3194;DHT22;1608;50.860;13.466;2022-07-05T13:37:18;27.00;51.50
3194;DHT22;1608;50.860;13.466;2022-07-05T13:39:44;27.00;52.70
3194;DHT22;1608;50.860;13.466;2022-07-05T13:42:13;26.80;54.70
3194;DHT22;1608;50.860;13.466;2022-07-05T13:44:39;26.60;51.40
3194;DHT22;1608;50.860;13.466;2022-07-05T13:47:06;26.70;52.20
3194;DHT22;1608;50.860;13.466;2022-07-05T13:49:33;26.60;51.40
3194;DHT22;1608;50.860;13.466;2022-07-05T13:52:00;26.60;53.50
3194;DHT22;1608;50.860;13.466;2022-07-05T13:54:27;26.60;53.10
3194;DHT22;1608;50.860;13.466;2022-07-05T13:56:54;26.80;53.50
3194;DHT22;1608;50.860;13.466;2022-07-05T13:59:22;26.80;52.40
3194;DHT22;1608;50.860;13.466;2022-07-05T14:01:49;27.10;52.80
3194;DHT22;1608;50.860;13.466;2022-07-05T14:04:16;27.10;52.50
3194;DHT22;1608;50.860;13.466;2022-07-05T14:06:43;27.00;52.80
3194;DHT22;1608;50.860;13.466;2022-07-05T14:09:11;26.80;51.00
3194;DHT22;1608;50.860;13.466;2022-07-05T14:11:38;26.80;50.60
3194;DHT22;1608;50.860;13.466;2022-07-05T14:14:05;26.70;51.40
3194;DHT22;1608;50.860;13.466;2022-07-05T14:16:33;26.70;52.20
3194;DHT22;1608;50.860;13.466;2022-07-05T14:18:59;26.50;54.10
3194;DHT22;1608;50.860;13.466;2022-07-05T14:21:26;26.60;52.10
3194;DHT22;1608;50.860;13.466;2022-07-05T14:23:53;26.60;53.00
3194;DHT22;1608;50.860;13.466;2022-07-05T14:26:19;26.80;51.00
3194;DHT22;1608;50.860;13.466;2022-07-05T14:28:46;26.60;51.80
3194;DHT22;1608;50.860;13.466;2022-07-05T14:31:13;26.60;50.90
3194;DHT22;1608;50.860;13.466;2022-07-05T14:33:41;26.50;51.50
3194;DHT22;1608;50.860;13.466;2022-07-05T14:36:08;26.60;51.30
3194;DHT22;1608;50.860;13.466;2022-07-05T14:38:35;26.60;52.00
3194;DHT22;1608;50.860;13.466;2022-07-05T14:41:01;26.60;52.60
3194;DHT22;1608;50.860;13.466;2022-07-05T14:43:28;26.80;51.10
3194;DHT22;1608;50.860;13.466;2022-07-05T14:45:55;26.70;52.20
3194;DHT22;1608;50.860;13.466;2022-07-05T14:48:22;26.40;50.70
3194;DHT22;1608;50.860;13.466;2022-07-05T14:50:50;26.40;51.10
3194;DHT22;1608;50.860;13.466;2022-07-05T14:53:17;26.50;51.50
3194;DHT22;1608;50.860;13.466;2022-07-05T14:55:44;26.50;51.80
3194;DHT22;1608;50.860;13.466;2022-07-05T14:58:11;26.50;55.30
3194;DHT22;1608;50.860;13.466;2022-07-05T15:00:38;26.50;51.10
3194;DHT22;1608;50.860;13.466;2022-07-05T15:03:04;26.40;51.80
3194;DHT22;1608;50.860;13.466;2022-07-05T15:05:34;26.50;51.80
3194;DHT22;1608;50.860;13.466;2022-07-05T15:08:02;26.60;50.00
3194;DHT22;1608;50.860;13.466;2022-07-05T15:10:30;26.60;49.90
3194;DHT22;1608;50.860;13.466;2022-07-05T15:12:57;26.70;50.30
3194;DHT22;1608;50.860;13.466;2022-07-05T15:15:24;26.80;50.10
3194;DHT22;1608;50.860;13.466;2022-07-05T15:17:51;26.80;51.70
3194;DHT22;1608;50.860;13.466;2022-07-05T15:20:17;26.80;50.30
3194;DHT22;1608;50.860;13.466;2022-07-05T15:22:48;27.00;52.00
3194;DHT22;1608;50.860;13.466;2022-07-05T15:25:16;26.80;50.70
3194;DHT22;1608;50.860;13.466;2022-07-05T15:27:43;26.80;49.40
3194;DHT22;1608;50.860;13.466;2022-07-05T15:30:11;26.70;51.80
3194;DHT22;1608;50.860;13.466;2022-07-05T15:32:40;26.70;52.70
3194;DHT22;1608;50.860;13.466;2022-07-05T15:35:08;26.60;52.10
3194;DHT22;1608;50.860;13.466;2022-07-05T15:37:35;26.60;51.20
3194;DHT22;1608;50.860;13.466;2022-07-05T15:40:02;26.50;52.30
3194;DHT22;1608;50.860;13.466;2022-07-05T15:42:30;26.60;52.50
3194;DHT22;1608;50.860;13.466;2022-07-05T15:44:57;26.60;51.50
3194;DHT22;1608;50.860;13.466;2022-07-05T15:47:24;26.60;50.90
3194;DHT22;1608;50.860;13.466;2022-07-05T15:49:52;26.50;51.00
3194;DHT22;1608;50.860;13.466;2022-07-05T15:52:19;26.40;50.40
3194;DHT22;1608;50.860;13.466;2022-07-05T15:54:47;26.50;50.30